aviador You're here:

LFSB Decoded Metar

MULHOUSE in FRANCE
Report Time2017-09-23 11:00:00
UTC Time2017-09-23 11:12:27
Flight Rules vfr VFR
Wind340° at 04 kt
W.Decomp.*RWY 33: 4.0 kt HW 0.6 kt RCW
RWY 26: 0.8 kt HW 3.9 kt RCW
W.Rank340° ranks 11
Current wind is below 340° avg. (5.5)
Visibility9999 m
Phenomena:N/A
Clouds:Few 040 Hf
Expected CloudBase > 3,600 ft AGL from Temp-Dew spread
CeilingNone
Temp19°C (ISA +6)
Dew Point10°C (56% RH)
AAT17.6°C
QNH1022 hPa
Density Alt1,430 ft
Elevation889 ft
Report Wrong Elevation
Raw Report
LFSB 231100Z 34004KT 290V040 9999 FEW040 19/10 Q1022 NOSIG=

Extra information for LFSB:More info

Metar Taf Metar & Taf Last 4 Metars F.Rules Stats Wind Profile Meteogram Temp Stats Airport Information Weather charts Add Link Nearby VenuesMetar ALERT Operation Metar Decoded Social comments